createdAt,value
2019-04-26T00:00:48.388Z,56.12
2019-04-26T00:03:20.583Z,56.30
2019-04-26T00:05:49.831Z,56.19
2019-04-26T00:08:19.180Z,56.40
2019-04-26T00:11:03.012Z,56.56
2019-04-26T00:14:03.752Z,56.84
2019-04-26T00:16:46.279Z,57.06
2019-04-26T00:19:15.761Z,57.23
2019-04-26T00:21:44.927Z,57.43
2019-04-26T00:24:15.185Z,57.37
2019-04-26T00:26:43.428Z,57.59
2019-04-26T00:29:12.725Z,57.85
2019-04-26T00:31:41.917Z,57.74
2019-04-26T00:34:12.104Z,58.07
2019-04-26T00:36:40.317Z,58.17
2019-04-26T00:39:09.621Z,58.40
2019-04-26T00:41:39.045Z,58.38
2019-04-26T00:44:08.745Z,58.60
2019-04-26T00:46:38.005Z,58.95
2019-04-26T00:49:07.283Z,59.12
2019-04-26T00:51:36.772Z,59.34
2019-04-26T00:54:06.010Z,59.36
2019-04-26T00:56:35.219Z,59.70
2019-04-26T00:59:04.867Z,59.62
2019-04-26T01:01:35.723Z,59.84
2019-04-26T01:04:05.217Z,60.13
2019-04-26T01:06:35.045Z,60.09
2019-04-26T01:09:05.585Z,60.37
2019-04-26T01:11:34.814Z,60.50
2019-04-26T01:14:04.066Z,60.64
2019-04-26T01:16:33.281Z,60.49
2019-04-26T01:19:02.527Z,60.52
2019-04-26T01:21:37.330Z,60.82
2019-04-26T01:24:06.565Z,60.65
2019-04-26T01:26:35.802Z,61.08
2019-04-26T01:29:06.051Z,61.00
2019-04-26T01:31:38.545Z,61.04
2019-04-26T01:34:07.769Z,61.10
2019-04-26T01:36:37.354Z,61.31
2019-04-26T01:39:14.713Z,61.69
2019-04-26T01:41:46.663Z,61.58
2019-04-26T01:44:37.563Z,61.76
2019-04-26T01:47:06.743Z,62.01
2019-04-26T01:49:36.252Z,62.21
2019-04-26T01:52:07.065Z,62.39
2019-04-26T01:54:39.076Z,62.74
2019-04-26T01:57:08.265Z,62.87
2019-04-26T01:59:37.897Z,63.05
2019-04-26T02:02:29.848Z,63.05
2019-04-26T02:05:00.055Z,63.26
2019-04-26T02:07:41.777Z,63.54
2019-04-26T02:10:15.481Z,63.63
2019-04-26T02:12:45.590Z,63.71
2019-04-26T02:15:15.325Z,64.05
2019-04-26T02:17:44.723Z,64.27
2019-04-26T02:20:14.037Z,64.47
2019-04-26T02:23:04.354Z,64.64
2019-04-26T02:25:34.276Z,64.91
2019-04-26T02:28:02.910Z,64.96
2019-04-26T02:30:33.287Z,64.79
2019-04-26T02:33:01.515Z,64.70
2019-04-26T02:35:32.141Z,65.01
2019-04-26T02:38:00.110Z,64.92
2019-04-26T02:40:30.118Z,65.16
2019-04-26T02:42:58.675Z,65.24
2019-04-26T02:45:54.094Z,65.44
2019-04-26T02:48:42.421Z,65.66
2019-04-26T02:51:14.442Z,65.92
2019-04-26T02:53:58.180Z,66.01
2019-04-26T02:56:52.795Z,66.10
2019-04-26T02:59:32.361Z,66.40
2019-04-26T03:02:01.017Z,66.52
2019-04-26T03:04:30.989Z,66.86
2019-04-26T03:07:03.492Z,67.03
2019-04-26T03:09:31.255Z,67.15
2019-04-26T03:11:58.647Z,67.30
2019-04-26T03:14:45.063Z,67.40
2019-04-26T03:17:21.736Z,67.65
2019-04-26T03:19:57.781Z,67.72
2019-04-26T03:23:00.719Z,67.94
2019-04-26T03:25:38.842Z,68.21
2019-04-26T03:28:21.473Z,68.55
2019-04-26T03:31:06.527Z,68.78
2019-04-26T03:34:01.624Z,68.68
2019-04-26T03:36:44.287Z,68.72
2019-04-26T03:39:20.438Z,68.80
2019-04-26T03:42:13.400Z,68.62
2019-04-26T03:45:07.863Z,68.86
2019-04-26T03:47:40.160Z,68.66
2019-04-26T03:50:15.421Z,68.97
2019-04-26T03:53:07.615Z,69.15
2019-04-26T03:56:11.950Z,69.24
2019-04-26T03:59:19.129Z,69.31
2019-04-26T04:02:13.400Z,69.58
2019-04-26T04:04:50.110Z,69.77
2019-04-26T04:07:35.638Z,69.84
2019-04-26T04:09:49.800Z,70.09
2019-04-26T04:12:44.414Z,70.28
2019-04-26T04:15:14.495Z,70.41
2019-04-26T04:17:52.430Z,70.73
2019-04-26T04:21:26.446Z,70.49
2019-04-26T04:24:16.151Z,70.47
2019-04-26T04:27:07.882Z,70.66
2019-04-26T04:30:21.604Z,70.67
2019-04-26T04:33:22.348Z,70.74
2019-04-26T04:35:53.566Z,70.93
2019-04-26T04:38:32.696Z,70.93
2019-04-26T04:41:30.777Z,71.11
2019-04-26T04:44:15.609Z,70.87
2019-04-26T04:47:24.616Z,70.95
2019-04-26T04:50:20.248Z,70.75
2019-04-26T04:53:19.872Z,70.82
2019-04-26T04:56:30.909Z,70.91
2019-04-26T04:59:01.243Z,70.93
2019-04-26T05:01:59.023Z,71.37
2019-04-26T05:04:32.917Z,71.32
2019-04-26T05:07:13.601Z,71.21
2019-04-26T05:10:07.351Z,71.18
2019-04-26T05:12:57.023Z,70.81
2019-04-26T05:15:57.821Z,71.42
2019-04-26T05:18:56.805Z,70.81
2019-04-26T05:21:32.081Z,71.04
2019-04-26T05:24:11.743Z,70.89
2019-04-26T05:27:42.513Z,70.78
2019-04-26T05:30:41.673Z,70.37
2019-04-26T05:33:57.631Z,70.49
2019-04-26T05:36:50.564Z,71.18
2019-04-26T05:39:28.448Z,71.16
2019-04-26T05:42:28.387Z,71.20
2019-04-26T05:45:36.819Z,71.34
2019-04-26T05:48:37.777Z,71.67
2019-04-26T05:51:55.687Z,71.25
2019-04-26T05:54:58.196Z,71.48
2019-04-26T05:58:08.389Z,70.76
2019-04-26T06:01:23.321Z,70.21
2019-04-26T06:04:23.331Z,70.06
2019-04-26T06:07:16.987Z,69.55
2019-04-26T06:10:23.494Z,69.33
2019-04-26T06:13:02.963Z,69.04
2019-04-26T06:15:48.719Z,68.96
2019-04-26T06:19:12.591Z,69.19
2019-04-26T06:22:10.980Z,69.09
2019-04-26T06:24:59.137Z,69.42
2019-04-26T06:27:59.299Z,69.10
2019-04-26T06:30:45.352Z,68.98
2019-04-26T06:33:15.400Z,69.31
2019-04-26T06:35:44.625Z,69.94
2019-04-26T06:39:12.535Z,69.86
2019-04-26T06:42:17.511Z,70.63
2019-04-26T06:45:45.773Z,70.18
2019-04-26T06:48:50.907Z,68.56
2019-04-26T06:51:24.852Z,67.78
2019-04-26T06:54:19.730Z,67.30
2019-04-26T06:57:24.590Z,66.96
2019-04-26T07:00:17.172Z,67.07
2019-04-26T07:03:07.808Z,66.98
2019-04-26T07:05:36.632Z,67.18
2019-04-26T07:08:38.062Z,67.64
2019-04-26T07:11:33.346Z,67.47
2019-04-26T07:14:38.204Z,67.55
2019-04-26T07:17:10.282Z,67.43
2019-04-26T07:20:22.780Z,66.96
2019-04-26T07:23:27.798Z,66.77
2019-04-26T07:26:46.611Z,66.48
2019-04-26T07:29:38.075Z,65.81
2019-04-26T07:32:20.755Z,66.54
2019-04-26T07:35:15.266Z,66.60
2019-04-26T07:38:21.142Z,66.35
2019-04-26T07:41:34.800Z,66.29
2019-04-26T07:44:58.641Z,65.55
2019-04-26T07:47:47.569Z,65.03
2019-04-26T07:50:40.748Z,64.40
2019-04-26T07:53:44.767Z,64.27
2019-04-26T07:56:52.780Z,63.83
2019-04-26T08:00:01.540Z,63.00
2019-04-26T08:02:51.431Z,62.22
2019-04-26T08:05:34.633Z,62.38
2019-04-26T08:08:06.811Z,61.97
2019-04-26T08:10:38.716Z,62.31
2019-04-26T08:13:08.672Z,61.12
2019-04-26T08:16:06.763Z,61.08
2019-04-26T08:18:41.527Z,60.55
2019-04-26T08:21:18.873Z,60.60
2019-04-26T08:23:57.838Z,60.64
2019-04-26T08:26:26.364Z,60.28
2019-04-26T08:28:56.665Z,60.35
2019-04-26T08:31:25.883Z,59.96
2019-04-26T08:33:56.871Z,60.01
2019-04-26T08:36:27.113Z,60.74
2019-04-26T08:38:55.450Z,62.58
2019-04-26T08:41:24.650Z,63.24
2019-04-26T08:44:12.409Z,62.94
2019-04-26T08:47:16.749Z,63.43
2019-04-26T08:49:59.911Z,64.55
2019-04-26T08:52:29.168Z,63.27
2019-04-26T08:54:58.386Z,63.19
2019-04-26T08:57:28.299Z,63.29
2019-04-26T08:59:57.578Z,61.94
2019-04-26T09:02:55.727Z,62.38
2019-04-26T09:05:53.277Z,62.54
2019-04-26T09:08:23.702Z,62.61
2019-04-26T09:10:52.954Z,62.69
2019-04-26T09:13:22.601Z,62.58
2019-04-26T09:16:14.995Z,62.74
2019-04-26T09:18:52.617Z,62.36
2019-04-26T09:21:17.002Z,61.97
2019-04-26T09:24:16.957Z,62.39
2019-04-26T09:26:56.315Z,62.81
2019-04-26T09:29:32.199Z,63.39
2019-04-26T09:32:12.552Z,63.21
2019-04-26T09:34:42.825Z,63.22
2019-04-26T09:37:11.079Z,62.83
2019-04-26T09:39:41.580Z,62.61
2019-04-26T09:42:15.350Z,62.13
2019-04-26T09:44:52.866Z,61.57
2019-04-26T09:47:43.882Z,61.51
2019-04-26T09:50:41.228Z,60.25
2019-04-26T09:53:10.469Z,60.53
2019-04-26T09:55:39.709Z,60.35
2019-04-26T09:58:08.986Z,60.38
2019-04-26T10:00:38.260Z,60.80
2019-04-26T10:03:09.405Z,61.15
2019-04-26T10:05:36.705Z,59.80
2019-04-26T10:08:08.221Z,59.34
2019-04-26T10:10:36.348Z,60.18
2019-04-26T10:13:38.733Z,60.22
2019-04-26T10:16:22.987Z,59.71
2019-04-26T10:19:01.292Z,59.76
2019-04-26T10:21:30.598Z,60.18
2019-04-26T10:24:02.915Z,59.46
2019-04-26T10:26:29.910Z,60.34
2019-04-26T10:28:58.474Z,61.29
2019-04-26T10:31:27.789Z,61.14
2019-04-26T10:33:57.078Z,61.52
2019-04-26T10:36:30.270Z,61.03
2019-04-26T10:38:58.499Z,61.61
2019-04-26T10:41:24.791Z,60.88
2019-04-26T10:43:54.061Z,61.10
2019-04-26T10:46:24.450Z,60.28
2019-04-26T10:48:52.576Z,60.61
2019-04-26T10:51:29.284Z,61.67
2019-04-26T10:54:09.128Z,61.84
2019-04-26T10:56:42.957Z,62.25
2019-04-26T10:59:31.764Z,62.29
2019-04-26T11:01:59.576Z,62.19
2019-04-26T11:04:28.831Z,62.66
2019-04-26T11:07:01.846Z,63.39
2019-04-26T11:09:27.525Z,63.89
2019-04-26T11:11:56.775Z,65.11
2019-04-26T11:14:26.028Z,65.23
2019-04-26T11:16:55.254Z,64.36
2019-04-26T11:19:24.474Z,64.07
2019-04-26T11:21:54.799Z,64.06
2019-04-26T11:24:22.955Z,63.66
2019-04-26T11:26:52.177Z,63.44
2019-04-26T11:29:21.432Z,61.87
2019-04-26T11:31:50.665Z,60.04
2019-04-26T11:34:23.718Z,58.53
2019-04-26T11:36:49.159Z,57.43
2019-04-26T11:39:18.372Z,56.60
2019-04-26T11:41:47.580Z,56.61
2019-04-26T11:44:16.798Z,56.60
2019-04-26T11:46:46.142Z,56.88
2019-04-26T11:49:15.191Z,57.67
2019-04-26T11:51:44.412Z,56.21
2019-04-26T11:54:16.960Z,55.72
2019-04-26T11:56:42.906Z,55.12
2019-04-26T11:59:12.177Z,55.56
2019-04-26T12:01:42.020Z,55.48
2019-04-26T12:04:42.144Z,55.49
2019-04-26T12:07:16.902Z,55.10
2019-04-26T12:09:47.484Z,54.94
2019-04-26T12:12:16.670Z,54.49
2019-04-26T12:14:45.917Z,54.55
2019-04-26T12:17:15.100Z,54.79
2019-04-26T12:19:44.387Z,54.73
2019-04-26T12:22:13.599Z,54.74
2019-04-26T12:24:42.841Z,55.02
2019-04-26T12:27:12.189Z,54.60
2019-04-26T12:29:44.165Z,55.03
2019-04-26T12:32:10.635Z,56.44
2019-04-26T12:34:39.833Z,56.93
2019-04-26T12:37:12.514Z,56.45
2019-04-26T12:39:38.367Z,57.24
2019-04-26T12:42:08.218Z,57.27
2019-04-26T12:44:42.791Z,58.33
2019-04-26T12:47:34.641Z,58.82
2019-04-26T12:50:00.531Z,60.05
2019-04-26T12:52:29.582Z,61.06
2019-04-26T12:54:58.892Z,61.85
2019-04-26T12:57:28.131Z,62.32
2019-04-26T13:00:01.347Z,63.22
2019-04-26T13:02:26.535Z,63.60
2019-04-26T13:04:55.798Z,64.11
2019-04-26T13:07:25.056Z,65.25
2019-04-26T13:10:25.061Z,65.61
2019-04-26T13:13:31.612Z,65.27
2019-04-26T13:16:21.443Z,66.58
2019-04-26T13:18:48.602Z,66.97
2019-04-26T13:21:17.967Z,67.64
2019-04-26T13:23:48.307Z,68.04
2019-04-26T13:26:16.452Z,67.70
2019-04-26T13:28:45.753Z,67.95
2019-04-26T13:31:15.001Z,67.93
2019-04-26T13:33:44.212Z,67.89
2019-04-26T13:36:13.528Z,68.22
2019-04-26T13:38:45.118Z,69.20
2019-04-26T13:41:11.931Z,69.48
2019-04-26T13:43:41.130Z,69.89
2019-04-26T13:46:28.078Z,70.02
2019-04-26T13:49:19.369Z,69.10
2019-04-26T13:51:48.194Z,68.48
2019-04-26T13:54:21.200Z,69.35
2019-04-26T13:56:46.654Z,69.54
2019-04-26T13:59:15.891Z,69.75
2019-04-26T14:01:45.122Z,69.57
2019-04-26T14:04:14.317Z,70.21
2019-04-26T14:06:43.512Z,71.15
2019-04-26T14:09:12.788Z,72.34
2019-04-26T14:11:42.102Z,72.16
2019-04-26T14:14:11.328Z,71.92
2019-04-26T14:16:40.573Z,72.89
2019-04-26T14:19:14.815Z,74.02
2019-04-26T14:21:39.021Z,74.10
2019-04-26T14:24:26.094Z,74.07
2019-04-26T14:27:02.646Z,74.36
2019-04-26T14:29:32.377Z,74.84
2019-04-26T14:32:01.060Z,75.92
2019-04-26T14:34:30.298Z,76.68
2019-04-26T14:37:06.250Z,76.87
2019-04-26T14:39:38.461Z,77.01
2019-04-26T14:41:58.433Z,77.53
2019-04-26T14:44:31.104Z,77.80
2019-04-26T14:46:56.946Z,78.29
2019-04-26T14:49:38.313Z,78.25
2019-04-26T14:51:56.207Z,78.56
2019-04-26T14:54:24.142Z,78.39
2019-04-26T14:56:53.350Z,78.40
2019-04-26T14:59:44.438Z,78.63
2019-04-26T15:02:32.961Z,78.64
2019-04-26T15:05:12.187Z,78.91
2019-04-26T15:07:49.397Z,79.26
2019-04-26T15:10:10.986Z,79.74
2019-04-26T15:12:46.202Z,80.29
2019-04-26T15:15:07.868Z,81.16
2019-04-26T15:17:37.067Z,81.89
2019-04-26T15:20:06.528Z,82.11
2019-04-26T15:22:35.736Z,82.56
2019-04-26T15:25:07.670Z,82.99
2019-04-26T15:27:36.236Z,82.75
2019-04-26T15:30:04.390Z,83.34
2019-04-26T15:32:35.232Z,83.25
2019-04-26T15:35:02.158Z,83.37
2019-04-26T15:37:32.155Z,83.10
2019-04-26T15:40:07.068Z,82.71
2019-04-26T15:43:00.831Z,83.42
2019-04-26T15:45:38.981Z,83.18
2019-04-26T15:48:38.118Z,84.11
2019-04-26T15:51:07.360Z,84.62
2019-04-26T15:53:36.604Z,85.21
2019-04-26T15:56:05.798Z,85.06
2019-04-26T15:58:38.119Z,85.00
2019-04-26T16:01:06.694Z,85.79
2019-04-26T16:03:36.870Z,86.26
2019-04-26T16:06:07.093Z,85.62
2019-04-26T16:08:35.114Z,86.58
2019-04-26T16:11:02.930Z,86.57
2019-04-26T16:13:32.278Z,87.37
2019-04-26T16:15:59.906Z,87.92
2019-04-26T16:18:29.156Z,87.81
2019-04-26T16:20:58.600Z,87.39
2019-04-26T16:23:38.434Z,87.40
2019-04-26T16:25:57.213Z,87.62
2019-04-26T16:28:48.500Z,88.71
2019-04-26T16:31:32.229Z,88.10
2019-04-26T16:34:10.512Z,87.30
2019-04-26T16:36:36.626Z,87.99
2019-04-26T16:39:03.910Z,87.64
2019-04-26T16:41:37.624Z,87.93
2019-04-26T16:44:02.830Z,87.88
2019-04-26T16:46:33.312Z,87.17
2019-04-26T16:49:02.339Z,87.94
2019-04-26T16:51:30.260Z,88.23
2019-04-26T16:54:07.331Z,88.21
2019-04-26T16:56:29.396Z,87.70
2019-04-26T16:58:58.810Z,88.26
2019-04-26T17:01:28.418Z,88.23
2019-04-26T17:03:57.713Z,88.51
2019-04-26T17:06:27.010Z,88.65
2019-04-26T17:09:01.168Z,88.50
2019-04-26T17:11:25.605Z,89.00
2019-04-26T17:13:57.029Z,89.26
2019-04-26T17:16:25.670Z,90.00
2019-04-26T17:18:55.642Z,89.40
2019-04-26T17:21:25.640Z,89.81
2019-04-26T17:24:12.193Z,89.67
2019-04-26T17:26:45.214Z,89.62
2019-04-26T17:29:14.587Z,89.58
2019-04-26T17:31:43.851Z,90.19
2019-04-26T17:34:13.053Z,90.14
2019-04-26T17:36:42.389Z,90.47
2019-04-26T17:39:16.944Z,90.25
2019-04-26T17:41:45.107Z,90.07
2019-04-26T17:44:13.131Z,89.79
2019-04-26T17:46:39.804Z,90.19
2019-04-26T17:49:10.994Z,90.32
2019-04-26T17:51:43.137Z,90.64
2019-04-26T17:54:32.158Z,90.51
2019-04-26T17:56:39.564Z,91.10
2019-04-26T17:59:09.344Z,90.78
2019-04-26T18:01:45.226Z,91.09
2019-04-26T18:04:04.924Z,91.21
2019-04-26T18:06:34.085Z,91.24
2019-04-26T18:09:03.393Z,91.33
2019-04-26T18:11:33.041Z,91.90
2019-04-26T18:14:01.910Z,91.62
2019-04-26T18:16:31.165Z,91.94
2019-04-26T18:19:30.299Z,92.20
2019-04-26T18:22:05.413Z,91.41
2019-04-26T18:24:35.091Z,91.66
2019-04-26T18:27:03.993Z,91.73
2019-04-26T18:29:33.734Z,91.59
2019-04-26T18:32:03.691Z,91.96
2019-04-26T18:34:37.390Z,92.24
2019-04-26T18:37:04.249Z,92.20
2019-04-26T18:39:30.606Z,92.56
2019-04-26T18:42:04.359Z,92.89
2019-04-26T18:44:38.347Z,92.79
2019-04-26T18:47:05.237Z,92.79
2019-04-26T18:49:34.464Z,92.82
2019-04-26T18:52:03.890Z,93.13
2019-04-26T18:54:37.847Z,92.99
2019-04-26T18:57:09.510Z,93.31
2019-04-26T18:59:36.400Z,93.60
2019-04-26T19:02:05.663Z,93.88
2019-04-26T19:04:34.901Z,94.03
2019-04-26T19:07:04.218Z,94.19
2019-04-26T19:09:55.895Z,94.47
2019-04-26T19:12:02.733Z,94.50
2019-04-26T19:15:03.145Z,94.36
2019-04-26T19:17:40.691Z,94.47
2019-04-26T19:20:27.636Z,94.70
2019-04-26T19:22:58.834Z,95.12
2019-04-26T19:25:29.785Z,95.07
2019-04-26T19:27:58.642Z,95.00
2019-04-26T19:30:26.609Z,95.16
2019-04-26T19:32:55.910Z,95.30
2019-04-26T19:35:25.230Z,95.38
2019-04-26T19:37:54.534Z,95.37
2019-04-26T19:40:23.784Z,95.54
2019-04-26T19:42:57.375Z,95.38
2019-04-26T19:45:39.523Z,95.32
2019-04-26T19:48:31.456Z,95.48
2019-04-26T19:51:09.291Z,95.40
2019-04-26T19:53:51.716Z,95.61
2019-04-26T19:56:27.476Z,95.61
2019-04-26T19:58:57.373Z,95.46
2019-04-26T20:01:24.807Z,95.48
2019-04-26T20:03:52.119Z,95.49
2019-04-26T20:06:19.939Z,95.53
2019-04-26T20:08:49.626Z,95.45
2019-04-26T20:11:18.846Z,95.51
2019-04-26T20:13:53.486Z,95.73
2019-04-26T20:16:16.981Z,95.93
2019-04-26T20:18:46.315Z,96.50
2019-04-26T20:21:15.659Z,96.42
2019-04-26T20:23:47.368Z,96.39
2019-04-26T20:26:14.046Z,96.55
2019-04-26T20:28:43.448Z,96.51
2019-04-26T20:31:47.507Z,96.42
2019-04-26T20:34:16.663Z,96.51
2019-04-26T20:36:47.620Z,96.54
2019-04-26T20:39:12.522Z,96.58
2019-04-26T20:41:40.814Z,96.37
2019-04-26T20:44:10.747Z,96.21
2019-04-26T20:46:39.434Z,96.15
2019-04-26T20:49:09.314Z,96.27
2019-04-26T20:51:42.200Z,96.40
2019-04-26T20:54:10.713Z,96.39
2019-04-26T20:56:36.579Z,96.39
2019-04-26T20:59:05.846Z,96.56
2019-04-26T21:01:35.066Z,96.67
2019-04-26T21:04:04.311Z,96.60
2019-04-26T21:06:36.812Z,96.58
2019-04-26T21:09:06.267Z,96.65
2019-04-26T21:11:37.212Z,96.81
2019-04-26T21:14:07.162Z,96.70
2019-04-26T21:16:32.279Z,96.67
2019-04-26T21:19:01.749Z,96.63
2019-04-26T21:21:29.081Z,96.69
2019-04-26T21:23:58.294Z,96.71
2019-04-26T21:26:54.451Z,96.93
2019-04-26T21:29:38.848Z,96.87
2019-04-26T21:32:16.283Z,96.83
2019-04-26T21:34:50.463Z,96.89
2019-04-26T21:37:49.435Z,96.78
2019-04-26T21:40:23.314Z,96.86
2019-04-26T21:42:48.662Z,97.03
2019-04-26T21:45:21.749Z,97.04
2019-04-26T21:47:47.095Z,97.14
2019-04-26T21:50:16.376Z,97.38
2019-04-26T21:52:45.762Z,97.42
2019-04-26T21:55:16.713Z,97.47
2019-04-26T21:57:44.038Z,97.50
2019-04-26T22:00:30.711Z,97.57
2019-04-26T22:02:59.911Z,97.57
2019-04-26T22:05:29.146Z,97.59
2019-04-26T22:07:58.363Z,97.63
2019-04-26T22:10:43.717Z,97.66
2019-04-26T22:13:13.861Z,97.69
2019-04-26T22:15:59.087Z,97.72
2019-04-26T22:18:33.134Z,97.77
2019-04-26T22:21:07.995Z,97.87
2019-04-26T22:23:59.244Z,97.89
2019-04-26T22:26:28.483Z,97.83
2019-04-26T22:29:00.161Z,97.72
2019-04-26T22:31:26.978Z,97.70
2019-04-26T22:33:56.201Z,97.61
2019-04-26T22:36:27.482Z,97.58
2019-04-26T22:38:57.085Z,97.54
2019-04-26T22:41:24.476Z,97.54
2019-04-26T22:43:56.559Z,97.51
2019-04-26T22:46:47.288Z,97.49
2019-04-26T22:49:13.333Z,97.53
2019-04-26T22:51:43.579Z,97.62
2019-04-26T22:54:11.339Z,97.70
2019-04-26T22:56:40.576Z,97.59
2019-04-26T22:59:09.800Z,97.42
2019-04-26T23:01:43.628Z,97.37
2019-04-26T23:04:08.220Z,97.50
2019-04-26T23:06:37.438Z,97.56
2019-04-26T23:09:11.500Z,97.61
2019-04-26T23:11:39.513Z,97.66
2019-04-26T23:14:27.991Z,97.65
2019-04-26T23:17:19.269Z,97.72
2019-04-26T23:19:58.689Z,97.76
2019-04-26T23:22:30.871Z,97.75
2019-04-26T23:24:58.176Z,97.80
2019-04-26T23:27:26.396Z,97.73
2019-04-26T23:29:58.340Z,97.77
2019-04-26T23:32:24.959Z,97.66
2019-04-26T23:34:54.183Z,97.61
2019-04-26T23:37:25.934Z,97.61
2019-04-26T23:39:53.630Z,97.60
2019-04-26T23:42:23.266Z,97.63
2019-04-26T23:44:51.119Z,97.74
2019-04-26T23:47:23.045Z,97.90
2019-04-26T23:49:53.827Z,97.82
2019-04-26T23:52:19.512Z,97.76
2019-04-26T23:54:47.958Z,97.71
2019-04-26T23:57:17.168Z,97.79
2019-04-26T23:59:46.533Z,97.75
